Time;durP1;ratioP1;P1;durP2;ratioP2;P2;SDS_P1;SDS_P2;PMS_P1;PMS_P2;Temp;Humidity;BMP_temperature;BMP_pressure;BME280_temperature;BME280_humidity;BME280_pressure;Samples;Min_cycle;Max_cycle;Signal;HPM_P1;HPM_P2
2024/01/01 00:01:23;;;;;;;10.02;4.60;;;;;;;7.42;100.00;99643.03;5027718;28;20017;-62
2024/01/01 00:03:48;;;;;;;10.95;2.80;;;;;;;7.37;100.00;99637.78;5027937;28;20021;-62
2024/01/01 00:06:13;;;;;;;9.25;2.60;;;;;;;7.36;100.00;99642.91;5027218;28;20116;-62
2024/01/01 00:08:38;;;;;;;11.93;5.72;;;;;;;7.43;100.00;99644.78;5026923;28;20022;-62
2024/01/01 00:11:04;;;;;;;9.65;4.10;;;;;;;7.41;100.00;99655.03;5027432;28;20025;-62
2024/01/01 00:13:29;;;;;;;7.53;2.67;;;;;;;7.38;100.00;99677.28;5027520;28;20372;-62
2024/01/01 00:15:54;;;;;;;7.03;2.38;;;;;;;7.23;100.00;99652.88;5026882;28;20064;-62
2024/01/01 00:18:20;;;;;;;7.68;2.17;;;;;;;7.09;100.00;99660.22;5026837;28;20025;-62
2024/01/01 00:20:45;;;;;;;4.03;1.70;;;;;;;6.96;100.00;99657.31;5027918;28;20033;-62
2024/01/01 00:23:10;;;;;;;5.60;1.60;;;;;;;6.80;100.00;99657.72;5027900;28;20032;-62
2024/01/01 00:25:36;;;;;;;2.88;1.33;;;;;;;6.82;100.00;99666.34;5028045;28;20040;-62
2024/01/01 00:28:05;;;;;;;6.50;2.40;;;;;;;6.75;100.00;99665.28;5027359;28;20524;-61
2024/01/01 00:30:31;;;;;;;4.55;1.70;;;;;;;6.68;100.00;99651.38;5022733;28;20035;-62
2024/01/01 00:32:56;;;;;;;7.40;2.15;;;;;;;6.65;100.00;99653.88;5027457;28;20393;-62
2024/01/01 00:35:21;;;;;;;4.45;1.92;;;;;;;6.59;100.00;99666.56;5026917;28;20021;-62
2024/01/01 00:37:46;;;;;;;5.70;2.55;;;;;;;6.47;100.00;99654.19;5025805;28;20051;-62
2024/01/01 00:40:12;;;;;;;5.45;2.08;;;;;;;6.37;100.00;99660.75;5026296;28;20052;-62
2024/01/01 00:42:38;;;;;;;4.68;2.10;;;;;;;6.22;100.00;99659.47;5027888;28;20022;-62
2024/01/01 00:45:04;;;;;;;7.55;2.00;;;;;;;6.20;100.00;99665.41;5026099;28;20437;-62
2024/01/01 00:47:29;;;;;;;4.60;1.98;;;;;;;6.15;100.00;99654.97;5026102;28;20037;-62
2024/01/01 00:49:54;;;;;;;6.05;2.10;;;;;;;6.03;100.00;99664.84;5024684;28;20048;-62
2024/01/01 00:52:20;;;;;;;5.05;1.77;;;;;;;5.99;100.00;99657.00;5027061;28;20028;-61
2024/01/01 00:54:45;;;;;;;5.03;2.15;;;;;;;5.95;100.00;99670.63;5024576;28;20040;-62
2024/01/01 00:57:10;;;;;;;4.68;2.53;;;;;;;5.85;100.00;99656.56;5026559;28;20103;-62
2024/01/01 00:59:37;;;;;;;5.88;2.53;;;;;;;5.85;100.00;99661.72;5026104;28;20568;-62
2024/01/01 01:02:02;;;;;;;7.43;2.90;;;;;;;5.89;100.00;99657.56;5026875;28;20482;-62
2024/01/01 01:04:28;;;;;;;8.32;2.85;;;;;;;5.80;100.00;99654.69;5027826;28;20017;-62
2024/01/01 01:06:55;;;;;;;5.78;2.92;;;;;;;5.81;100.00;99651.31;5025731;28;20026;-62
2024/01/01 01:09:20;;;;;;;7.03;3.20;;;;;;;5.73;100.00;99662.22;5019151;28;20021;-62
2024/01/01 01:11:46;;;;;;;7.95;3.17;;;;;;;5.67;100.00;99658.56;5027136;28;20411;-62
2024/01/01 01:14:11;;;;;;;5.47;2.72;;;;;;;5.66;100.00;99662.81;5027248;28;20645;-61
2024/01/01 01:16:36;;;;;;;5.68;2.17;;;;;;;5.61;100.00;99646.38;5026102;28;20040;-62
2024/01/01 01:19:02;;;;;;;6.00;2.75;;;;;;;5.65;100.00;99661.06;5026060;28;20037;-60
2024/01/01 01:21:28;;;;;;;6.75;2.08;;;;;;;5.61;100.00;99662.66;5026596;28;20072;-62
2024/01/01 01:23:54;;;;;;;4.35;2.00;;;;;;;5.63;100.00;99665.31;5024883;28;20107;-62
2024/01/01 01:26:19;;;;;;;4.88;1.75;;;;;;;5.58;100.00;99665.13;5026946;28;20524;-62
2024/01/01 01:28:44;;;;;;;7.82;2.22;;;;;;;5.63;100.00;99673.00;5026941;28;20029;-61
2024/01/01 01:31:11;;;;;;;5.60;1.70;;;;;;;5.62;100.00;99674.69;5028021;28;20273;-62
2024/01/01 01:33:36;;;;;;;6.03;1.80;;;;;;;5.64;100.00;99675.63;5027847;28;19917;-62
2024/01/01 01:36:02;;;;;;;4.93;1.95;;;;;;;5.71;100.00;99686.09;5027811;28;20124;-62
2024/01/01 01:38:27;;;;;;;4.78;1.80;;;;;;;5.69;100.00;99673.19;5026748;28;20474;-62
2024/01/01 01:40:54;;;;;;;4.88;1.98;;;;;;;5.69;100.00;99690.31;5026845;28;20033;-61
2024/01/01 01:43:23;;;;;;;5.13;1.60;;;;;;;5.67;100.00;99679.97;5025948;28;20014;-62
2024/01/01 01:45:50;;;;;;;5.60;1.77;;;;;;;5.68;100.00;99668.91;5025996;28;20033;-62
2024/01/01 01:48:16;;;;;;;4.35;1.63;;;;;;;5.62;100.00;99676.38;5026449;28;20055;-62
2024/01/01 01:50:44;;;;;;;7.35;1.75;;;;;;;5.52;100.00;99675.22;5025888;28;20029;-62
2024/01/01 01:53:11;;;;;;;5.72;2.03;;;;;;;5.56;100.00;99681.34;5024791;28;20482;-62
2024/01/01 01:55:37;;;;;;;5.95;2.25;;;;;;;5.51;100.00;99669.19;5027118;28;20383;-62
2024/01/01 01:58:02;;;;;;;11.77;2.88;;;;;;;5.49;100.00;99677.66;5027341;28;20112;-62
2024/01/01 02:00:27;;;;;;;8.48;2.20;;;;;;;5.53;100.00;99666.66;5027261;28;20025;-62
2024/01/01 02:02:53;;;;;;;5.95;2.00;;;;;;;5.51;100.00;99670.88;5027485;28;20071;-62
2024/01/01 02:05:19;;;;;;;7.30;2.22;;;;;;;5.51;100.00;99679.47;5027711;28;20022;-62
2024/01/01 02:07:45;;;;;;;8.52;2.17;;;;;;;5.61;100.00;99674.66;5027881;28;20546;-61
2024/01/01 02:10:12;;;;;;;8.55;2.10;;;;;;;5.61;100.00;99672.09;5027639;28;20017;-62
2024/01/01 02:12:37;;;;;;;9.23;2.30;;;;;;;5.65;100.00;99676.47;5027424;28;20026;-62
2024/01/01 02:15:05;;;;;;;5.93;2.08;;;;;;;5.68;100.00;99670.59;5027540;28;20037;-61
2024/01/01 02:17:30;;;;;;;9.18;1.98;;;;;;;5.68;100.00;99680.88;5027237;28;20080;-62
2024/01/01 02:19:55;;;;;;;8.73;2.15;;;;;;;5.71;100.00;99681.84;5026800;28;20263;-62
2024/01/01 02:22:20;;;;;;;5.78;2.17;;;;;;;5.72;100.00;99688.72;5027192;28;20025;-62
2024/01/01 02:24:46;;;;;;;9.55;1.98;;;;;;;5.76;100.00;99685.44;5027255;28;20037;-62
2024/01/01 02:27:11;;;;;;;9.98;2.03;;;;;;;5.78;100.00;99680.34;5027230;28;20033;-61
2024/01/01 02:29:36;;;;;;;4.80;1.42;;;;;;;5.79;100.00;99679.53;5026861;28;20087;-62
2024/01/01 02:32:02;;;;;;;9.82;1.98;;;;;;;5.81;100.00;99700.16;5026488;28;20033;-62
2024/01/01 02:34:28;;;;;;;7.72;1.70;;;;;;;5.85;100.00;99678.84;5027453;28;20030;-62
2024/01/01 02:36:54;;;;;;;9.13;2.08;;;;;;;5.87;100.00;99682.34;5027005;28;20025;-62
2024/01/01 02:39:20;;;;;;;10.60;2.65;;;;;;;5.81;100.00;99701.00;5027338;28;20025;-61
2024/01/01 02:41:45;;;;;;;10.50;2.10;;;;;;;5.79;100.00;99710.38;5027241;28;20097;-62
2024/01/01 02:44:10;;;;;;;11.98;2.15;;;;;;;5.76;100.00;99702.56;5030539;28;20025;-62
2024/01/01 02:46:36;;;;;;;12.63;2.00;;;;;;;5.72;100.00;99699.00;5030904;28;20065;-61
2024/01/01 02:49:01;;;;;;;12.02;2.55;;;;;;;5.68;100.00;99697.16;5031411;28;20017;-62
2024/01/01 02:51:26;;;;;;;10.27;2.08;;;;;;;5.71;100.00;99697.25;5030763;28;20095;-62
2024/01/01 02:53:51;;;;;;;9.95;1.83;;;;;;;5.73;100.00;99684.47;5030713;28;20465;-61
2024/01/01 02:56:23;;;;;;;12.68;2.10;;;;;;;5.67;100.00;99721.09;5030735;28;20075;-61
2024/01/01 02:58:49;;;;;;;8.82;2.25;;;;;;;5.61;100.00;99719.19;5030827;28;20442;-62
2024/01/01 03:01:15;;;;;;;12.02;2.00;;;;;;;5.59;100.00;99722.56;5030147;28;20045;-61
2024/01/01 03:03:40;;;;;;;8.10;2.75;;;;;;;5.65;100.00;99722.75;5030911;28;20144;-62
2024/01/01 03:06:08;;;;;;;9.50;1.90;;;;;;;5.63;100.00;99712.41;5030629;28;20470;-62
2024/01/01 03:08:37;;;;;;;12.38;2.33;;;;;;;5.59;100.00;99707.13;5030686;28;20127;-62
2024/01/01 03:11:04;;;;;;;10.10;1.70;;;;;;;5.59;100.00;99707.13;5030592;28;20037;-62
2024/01/01 03:13:29;;;;;;;12.35;2.20;;;;;;;5.58;100.00;99705.38;5030265;28;20484;-62
2024/01/01 03:15:54;;;;;;;7.82;2.47;;;;;;;5.56;100.00;99707.03;5030194;28;20034;-62
2024/01/01 03:18:21;;;;;;;11.70;2.60;;;;;;;5.57;100.00;99713.91;5030724;28;20018;-62
2024/01/01 03:20:46;;;;;;;9.40;2.00;;;;;;;5.56;100.00;99702.75;5030434;28;20029;-62
2024/01/01 03:23:11;;;;;;;12.98;2.30;;;;;;;5.59;100.00;99722.56;5029847;28;20024;-61
2024/01/01 03:25:36;;;;;;;8.27;1.77;;;;;;;5.51;100.00;99725.72;5030383;28;20071;-62
2024/01/01 03:28:02;;;;;;;11.63;2.45;;;;;;;5.52;100.00;99721.47;5030105;28;20017;-62
2024/01/01 03:30:27;;;;;;;12.02;2.33;;;;;;;5.53;100.00;99724.09;5030115;28;20037;-62
2024/01/01 03:32:52;;;;;;;10.27;1.90;;;;;;;5.52;100.00;99722.31;5029773;28;20042;-62
2024/01/01 03:35:19;;;;;;;10.48;2.00;;;;;;;5.50;100.00;99723.13;5029495;28;20035;-62
2024/01/01 03:37:44;;;;;;;10.13;2.05;;;;;;;5.53;100.00;99733.50;5029947;28;20289;-62
2024/01/01 03:40:10;;;;;;;8.70;2.10;;;;;;;5.51;100.00;99728.31;5030150;28;20485;-61
2024/01/01 03:42:35;;;;;;;10.35;2.00;;;;;;;5.61;100.00;99728.63;5029100;28;20078;-62
2024/01/01 03:45:01;;;;;;;11.52;2.40;;;;;;;5.60;100.00;99730.31;5030065;28;20641;-62
2024/01/01 03:47:27;;;;;;;12.85;2.30;;;;;;;5.59;100.00;99723.44;5029686;28;20046;-62
2024/01/01 03:49:53;;;;;;;11.00;2.03;;;;;;;5.60;100.00;99724.28;5030238;28;20033;-62
2024/01/01 03:52:18;;;;;;;11.35;2.22;;;;;;;5.55;100.00;99730.97;5029386;28;20029;-62
2024/01/01 03:54:43;;;;;;;10.57;2.55;;;;;;;5.56;100.00;99717.31;5028195;28;20064;-61
2024/01/01 03:57:09;;;;;;;10.82;2.47;;;;;;;5.57;100.00;99716.47;5029599;28;20041;-62
2024/01/01 03:59:35;;;;;;;7.30;2.00;;;;;;;5.60;100.00;99724.28;5029515;28;20033;-62
2024/01/01 04:02:00;;;;;;;8.73;2.22;;;;;;;5.65;100.00;99723.63;5029562;28;20029;-62
2024/01/01 04:04:25;;;;;;;9.23;1.70;;;;;;;5.67;100.00;99726.25;5029857;28;20381;-62
2024/01/01 04:06:51;;;;;;;6.57;1.70;;;;;;;5.67;100.00;99721.09;5029346;28;20030;-62
2024/01/01 04:09:16;;;;;;;9.15;2.00;;;;;;;5.64;100.00;99741.56;5029572;28;20448;-62
2024/01/01 04:11:41;;;;;;;8.10;2.05;;;;;;;5.67;100.00;99727.97;5028531;28;20037;-61
2024/01/01 04:14:06;;;;;;;7.13;2.03;;;;;;;5.64;100.00;99733.88;5029464;28;20030;-62
2024/01/01 04:16:32;;;;;;;9.43;1.70;;;;;;;5.63;100.00;99729.56;5029168;28;20442;-61
2024/01/01 04:18:58;;;;;;;8.57;2.00;;;;;;;5.64;100.00;99746.72;5028896;28;20021;-62
2024/01/01 04:21:23;;;;;;;8.70;1.75;;;;;;;5.64;100.00;99741.56;5028802;28;20031;-62
2024/01/01 04:23:48;;;;;;;7.15;1.52;;;;;;;5.65;100.00;99740.75;5029096;28;20478;-62
2024/01/01 04:26:14;;;;;;;8.77;1.42;;;;;;;5.69;100.00;99742.59;5028918;28;20103;-60
2024/01/01 04:28:39;;;;;;;5.63;1.65;;;;;;;5.68;100.00;99733.16;5029158;28;20025;-62
2024/01/01 04:31:04;;;;;;;10.80;2.05;;;;;;;5.68;100.00;99746.00;5028803;28;20018;-62
2024/01/01 04:33:30;;;;;;;6.85;1.45;;;;;;;5.70;100.00;99741.78;5028841;28;20025;-61
2024/01/01 04:35:55;;;;;;;7.20;1.73;;;;;;;5.69;100.00;99742.59;5028199;28;20044;-62
2024/01/01 04:38:20;;;;;;;11.60;1.70;;;;;;;5.70;100.00;99735.78;5029315;28;20342;-62
2024/01/01 04:40:46;;;;;;;6.20;1.35;;;;;;;5.69;100.00;99742.59;5028556;28;20108;-62
2024/01/01 04:43:11;;;;;;;9.15;2.47;;;;;;;5.76;100.00;99746.25;5028750;28;20477;-61
2024/01/01 04:45:37;;;;;;;8.57;2.63;;;;;;;5.74;100.00;99747.91;5027474;28;20025;-61
2024/01/01 04:48:03;;;;;;;7.57;1.48;;;;;;;5.74;100.00;99748.78;5029242;28;20091;-61
2024/01/01 04:50:31;;;;;;;4.95;1.38;;;;;;;5.80;100.00;99740.41;5028296;28;20052;-62
2024/01/01 04:52:56;;;;;;;10.25;2.25;;;;;;;5.75;100.00;99749.66;5028714;28;20044;-61
2024/01/01 04:55:21;;;;;;;6.63;1.33;;;;;;;5.79;100.00;99760.94;5028452;28;20026;-61
2024/01/01 04:57:47;;;;;;;8.50;1.75;;;;;;;5.81;100.00;99761.84;5028090;28;20036;-62
2024/01/01 05:00:14;;;;;;;10.85;1.77;;;;;;;5.75;100.00;99765.97;5028725;28;20108;-62
2024/01/01 05:02:39;;;;;;;9.27;2.20;;;;;;;5.76;100.00;99761.69;5028710;28;20026;-61
2024/01/01 05:05:05;;;;;;;6.72;1.60;;;;;;;5.72;100.00;99775.28;5028119;28;20022;-61
2024/01/01 05:07:31;;;;;;;9.98;1.88;;;;;;;5.75;100.00;99771.13;5028711;28;20516;-62
2024/01/01 05:09:56;;;;;;;8.38;2.10;;;;;;;5.72;100.00;99770.97;5027868;28;20029;-62
2024/01/01 05:12:21;;;;;;;7.15;1.90;;;;;;;5.75;100.00;99771.13;5028268;28;20492;-62
2024/01/01 05:14:46;;;;;;;9.68;1.90;;;;;;;5.84;100.00;99767.09;5028111;28;20030;-62
2024/01/01 05:17:12;;;;;;;6.32;1.55;;;;;;;5.84;100.00;99779.94;5028281;28;20473;-61
2024/01/01 05:19:37;;;;;;;5.00;1.52;;;;;;;5.75;100.00;99776.25;5028037;28;20025;-62
2024/01/01 05:22:04;;;;;;;8.70;1.77;;;;;;;5.73;100.00;99775.31;5027920;28;20053;-62
2024/01/01 05:24:29;;;;;;;11.18;1.98;;;;;;;5.73;100.00;99766.72;5028127;28;20022;-61
2024/01/01 05:26:54;;;;;;;8.63;1.58;;;;;;;5.73;100.00;99771.88;5028464;28;20553;-62
2024/01/01 05:29:20;;;;;;;5.70;1.40;;;;;;;5.70;100.00;99777.75;5027514;28;20025;-61
2024/01/01 05:31:45;;;;;;;7.75;1.45;;;;;;;5.76;100.00;99787.38;5027646;28;20090;-62
2024/01/01 05:34:10;;;;;;;11.77;2.08;;;;;;;5.74;100.00;99784.78;5027013;28;20440;-62
2024/01/01 05:36:35;;;;;;;5.18;1.25;;;;;;;5.78;100.00;99793.47;5027389;28;20127;-62
2024/01/01 05:39:01;;;;;;;6.20;1.38;;;;;;;5.81;100.00;99792.72;5027745;28;20037;-61
2024/01/01 05:41:26;;;;;;;7.47;1.60;;;;;;;5.79;100.00;99796.91;5028098;28;20271;-61
2024/01/01 05:43:52;;;;;;;7.75;1.85;;;;;;;5.75;100.00;99781.41;5026805;28;20470;-62
2024/01/01 05:46:17;;;;;;;7.40;1.65;;;;;;;5.76;100.00;99797.69;5027859;28;20053;-62
2024/01/01 05:48:42;;;;;;;8.82;1.55;;;;;;;5.74;100.00;99796.75;5027843;28;20385;-61
2024/01/01 05:51:09;;;;;;;4.25;1.15;;;;;;;5.72;100.00;99795.84;5027788;28;20025;-62
2024/01/01 05:53:34;;;;;;;6.40;1.77;;;;;;;5.74;100.00;99795.06;5027361;28;20505;-61
2024/01/01 05:55:59;;;;;;;4.28;1.42;;;;;;;5.72;100.00;99799.25;5027779;28;20100;-61
2024/01/01 05:58:24;;;;;;;5.20;1.52;;;;;;;5.70;100.00;99803.47;5027263;28;20063;-62
2024/01/01 06:00:50;;;;;;;5.38;1.40;;;;;;;5.67;100.00;99818.78;5027389;28;20032;-62
2024/01/01 06:03:15;;;;;;;5.45;1.50;;;;;;;5.63;100.00;99825.53;5027451;28;20030;-62
2024/01/01 06:05:40;;;;;;;8.73;1.70;;;;;;;5.59;100.00;99820.22;5027172;28;20033;-61
2024/01/01 06:08:06;;;;;;;4.85;1.40;;;;;;;5.53;100.00;99824.31;5027287;28;20385;-62
2024/01/01 06:10:32;;;;;;;7.60;1.65;;;;;;;5.50;100.00;99831.94;5027399;28;20025;-61
2024/01/01 06:12:57;;;;;;;7.95;1.80;;;;;;;5.50;100.00;99828.47;5026716;28;20029;-61
2024/01/01 06:15:23;;;;;;;8.53;1.97;;;;;;;5.50;100.00;99818.19;5027744;28;20377;-62
2024/01/01 06:17:49;;;;;;;10.82;1.90;;;;;;;5.51;100.00;99831.09;5026476;28;20037;-62
2024/01/01 06:20:15;;;;;;;11.53;2.07;;;;;;;5.53;100.00;99837.19;5027130;28;20044;-61
2024/01/01 06:22:40;;;;;;;7.07;1.52;;;;;;;5.54;100.00;99843.16;5027570;28;20018;-62
2024/01/01 06:25:06;;;;;;;8.43;1.52;;;;;;;5.51;100.00;99848.22;5027602;28;20133;-62
2024/01/01 06:27:31;;;;;;;7.73;1.43;;;;;;;5.53;100.00;99849.16;5027395;28;20041;-62
2024/01/01 06:29:58;;;;;;;7.55;1.30;;;;;;;5.57;100.00;99852.69;5026794;28;20040;-61
2024/01/01 06:32:23;;;;;;;6.65;1.67;;;;;;;5.50;100.00;99865.34;5026895;28;20022;-62
2024/01/01 06:34:48;;;;;;;8.13;1.77;;;;;;;5.52;100.00;99871.38;5027112;28;20028;-62
2024/01/01 06:37:14;;;;;;;7.70;1.35;;;;;;;5.55;100.00;99869.75;5027024;28;20022;-62
2024/01/01 06:39:39;;;;;;;7.25;1.60;;;;;;;5.49;100.00;99880.69;5026876;28;20025;-62
2024/01/01 06:42:04;;;;;;;6.43;1.50;;;;;;;5.43;100.00;99876.22;5027270;28;20091;-61
2024/01/01 06:44:30;;;;;;;9.65;1.88;;;;;;;5.45;100.00;99884.81;5027304;28;20021;-61
2024/01/01 06:46:55;;;;;;;9.82;2.42;;;;;;;5.39;100.00;99890.63;5026496;28;20057;-62
2024/01/01 06:49:20;;;;;;;9.80;1.70;;;;;;;5.46;100.00;99898.56;5027089;28;20029;-62
2024/01/01 06:51:50;;;;;;;7.60;1.38;;;;;;;5.43;100.00;99899.34;5026932;28;20045;-60
2024/01/01 06:54:16;;;;;;;6.13;1.10;;;;;;;5.45;100.00;99900.25;5026531;28;20092;-62
2024/01/01 06:56:41;;;;;;;8.63;1.98;;;;;;;5.45;100.00;99900.25;5026739;28;20053;-61
2024/01/01 06:59:07;;;;;;;9.60;2.37;;;;;;;5.46;100.00;99906.28;5026799;28;20102;-62
2024/01/01 07:01:32;;;;;;;12.32;1.75;;;;;;;5.47;100.00;99913.19;5026434;28;20037;-61
2024/01/01 07:03:57;;;;;;;7.35;1.65;;;;;;;5.48;100.00;99912.34;5027301;28;20565;-62
2024/01/01 07:06:23;;;;;;;6.37;1.73;;;;;;;5.53;100.00;99924.56;5026614;28;20032;-61
2024/01/01 07:08:48;;;;;;;5.93;1.30;;;;;;;5.56;100.00;99928.06;5026893;28;20466;-61
2024/01/01 07:11:14;;;;;;;8.65;1.65;;;;;;;5.56;100.00;99933.22;5027043;28;20079;-62
2024/01/01 07:13:39;;;;;;;7.28;1.80;;;;;;;5.53;100.00;99921.09;5026888;28;20029;-62
2024/01/01 07:16:04;;;;;;;6.88;1.70;;;;;;;5.60;100.00;99930.81;5026568;28;20026;-62
2024/01/01 07:18:30;;;;;;;10.23;2.15;;;;;;;5.54;100.00;99930.56;5026470;28;20257;-61
2024/01/01 07:20:55;;;;;;;8.23;1.70;;;;;;;5.55;100.00;99936.59;5026332;28;20033;-62
2024/01/01 07:23:20;;;;;;;5.60;1.75;;;;;;;5.53;100.00;99934.84;5026944;28;20025;-61
2024/01/01 07:25:45;;;;;;;5.38;1.25;;;;;;;5.56;100.00;99936.63;5026955;28;20469;-61
2024/01/01 07:28:11;;;;;;;6.45;1.88;;;;;;;5.58;100.00;99944.41;5028382;28;20029;-62
2024/01/01 07:30:36;;;;;;;7.85;1.55;;;;;;;5.58;100.00;99946.97;5028905;28;20071;-62
2024/01/01 07:33:03;;;;;;;5.23;1.23;;;;;;;5.58;100.00;99953.00;5027527;28;20133;-62
2024/01/01 07:35:28;;;;;;;9.97;1.90;;;;;;;5.57;100.00;99958.09;5028235;28;20108;-61
2024/01/01 07:37:53;;;;;;;7.85;1.75;;;;;;;5.56;100.00;99951.22;5028247;28;20596;-61
2024/01/01 07:40:19;;;;;;;8.47;1.80;;;;;;;5.55;100.00;99952.88;5027592;28;20492;-62
2024/01/01 07:42:45;;;;;;;7.05;1.75;;;;;;;5.50;100.00;99960.44;5028271;28;20071;-62
2024/01/01 07:45:10;;;;;;;10.93;1.90;;;;;;;5.52;100.00;99957.91;5028223;28;20171;-62
2024/01/01 07:47:35;;;;;;;6.65;1.70;;;;;;;5.49;100.00;99962.91;5027698;28;20109;-62
2024/01/01 07:50:01;;;;;;;5.97;1.33;;;;;;;5.44;100.00;99967.00;5025073;28;20112;-61
2024/01/01 07:52:27;;;;;;;7.63;1.60;;;;;;;5.44;100.00;99967.88;5025720;28;20055;-62
2024/01/01 07:54:57;;;;;;;12.63;1.83;;;;;;;5.45;100.00;99974.78;5027399;28;20064;-62
2024/01/01 07:57:23;;;;;;;8.90;2.00;;;;;;;5.44;100.00;99965.31;5027146;28;20038;-62
2024/01/01 07:59:48;;;;;;;6.67;1.80;;;;;;;5.46;100.00;99975.66;5027654;28;20029;-61
2024/01/01 08:02:14;;;;;;;8.90;2.43;;;;;;;5.41;100.00;99975.50;5026817;28;20087;-62
2024/01/01 08:04:39;;;;;;;8.13;1.70;;;;;;;5.37;100.00;99983.88;5029254;28;20033;-61
2024/01/01 08:07:04;;;;;;;11.87;2.30;;;;;;;5.35;100.00;99985.50;5028588;28;20029;-61
2024/01/01 08:09:29;;;;;;;9.52;1.90;;;;;;;5.34;100.00;99994.94;5029539;28;20030;-62
2024/01/01 08:11:55;;;;;;;9.30;2.23;;;;;;;5.37;100.00;100001.88;5029704;28;20025;-62
2024/01/01 08:14:20;;;;;;;9.90;1.73;;;;;;;5.37;100.00;100009.59;5029094;28;20464;-62
2024/01/01 08:16:45;;;;;;;9.07;1.70;;;;;;;5.35;100.00;100006.94;5029459;28;20033;-62
2024/01/01 08:19:10;;;;;;;6.07;1.77;;;;;;;5.35;100.00;100008.63;5028828;28;20106;-61
2024/01/01 08:21:36;;;;;;;6.87;1.60;;;;;;;5.33;100.00;100012.84;5026426;28;20048;-62
2024/01/01 08:24:01;;;;;;;6.97;1.60;;;;;;;5.33;100.00;100017.97;5029226;28;20110;-61
2024/01/01 08:26:26;;;;;;;7.88;1.80;;;;;;;5.43;100.00;100021.81;5029091;28;20036;-62
2024/01/01 08:28:52;;;;;;;9.63;1.80;;;;;;;5.42;100.00;100023.50;5028187;28;20025;-62
2024/01/01 08:31:19;;;;;;;10.63;1.85;;;;;;;5.39;100.00;100033.66;5029307;28;20033;-62
2024/01/01 08:33:45;;;;;;;4.03;1.30;;;;;;;5.45;100.00;100033.03;5028998;28;20052;-62
2024/01/01 08:36:11;;;;;;;8.57;1.75;;;;;;;5.40;100.00;100037.97;5029368;28;20068;-62
2024/01/01 08:38:36;;;;;;;9.25;1.83;;;;;;;5.40;100.00;100032.81;5028657;28;20049;-61
2024/01/01 08:41:01;;;;;;;8.45;1.70;;;;;;;5.44;100.00;100049.25;5028181;28;20113;-61
2024/01/01 08:43:26;;;;;;;12.17;2.03;;;;;;;5.44;100.00;100057.84;5028023;28;20079;-62
2024/01/01 08:45:52;;;;;;;11.85;1.98;;;;;;;5.48;100.00;100054.59;5026851;28;20049;-62
2024/01/01 08:48:17;;;;;;;9.52;1.88;;;;;;;5.45;100.00;100064.72;5028282;28;20013;-61
2024/01/01 08:50:42;;;;;;;8.00;1.75;;;;;;;5.55;100.00;100065.09;5027999;28;20245;-62
2024/01/01 08:53:07;;;;;;;10.18;2.20;;;;;;;5.52;100.00;100059.00;5028482;28;20029;-61
2024/01/01 08:55:33;;;;;;;9.95;2.47;;;;;;;5.53;100.00;100063.34;5028308;28;20033;-62
2024/01/01 08:57:59;;;;;;;9.40;2.15;;;;;;;5.51;100.00;100059.84;5028031;28;20053;-62
2024/01/01 09:00:26;;;;;;;9.10;1.90;;;;;;;5.50;100.00;100055.53;5028494;28;20121;-62
2024/01/01 09:02:51;;;;;;;7.70;2.58;;;;;;;5.51;100.00;100075.25;5027874;28;20032;-62
2024/01/01 09:05:16;;;;;;;13.25;2.60;;;;;;;5.51;100.00;100070.13;5026493;28;20191;-61
2024/01/01 09:07:41;;;;;;;6.78;1.95;;;;;;;5.49;100.00;100081.13;5026600;28;20122;-62
2024/01/01 09:10:07;;;;;;;6.68;1.75;;;;;;;5.52;100.00;100077.00;5027314;28;20060;-62
2024/01/01 09:12:33;;;;;;;7.95;2.40;;;;;;;5.53;100.00;100083.91;5027698;28;20064;-61
2024/01/01 09:14:58;;;;;;;7.22;2.10;;;;;;;5.57;100.00;100078.91;5028109;28;20363;-61
2024/01/01 09:17:24;;;;;;;6.63;1.50;;;;;;;5.58;100.00;100080.63;5027963;28;20025;-62
2024/01/01 09:19:49;;;;;;;7.75;1.88;;;;;;;5.56;100.00;100079.72;5027813;28;20025;-62
2024/01/01 09:22:15;;;;;;;7.75;2.20;;;;;;;5.57;100.00;100090.06;5028154;28;20083;-62
2024/01/01 09:24:43;;;;;;;7.97;1.65;;;;;;;5.60;100.00;100094.44;5027333;28;20045;-62
2024/01/01 09:27:09;;;;;;;7.47;2.33;;;;;;;5.64;100.00;100114.31;5028180;28;20029;-61
2024/01/01 09:29:35;;;;;;;11.52;2.45;;;;;;;5.61;100.00;100109.06;5028068;28;20381;-62
2024/01/01 09:32:00;;;;;;;7.75;1.98;;;;;;;5.64;100.00;100116.88;5027352;28;20029;-62
2024/01/01 09:34:25;;;;;;;6.50;1.38;;;;;;;5.59;100.00;100119.28;5027678;28;20447;-62
2024/01/01 09:36:51;;;;;;;6.40;1.50;;;;;;;5.47;100.00;100113.63;5027658;28;20036;-62
2024/01/01 09:39:16;;;;;;;7.53;1.67;;;;;;;5.51;100.00;100129.25;5027581;28;20025;-62
2024/01/01 09:41:41;;;;;;;8.20;1.90;;;;;;;5.47;100.00;100127.34;5028169;28;20033;-62
2024/01/01 09:44:11;;;;;;;6.85;2.00;;;;;;;5.47;100.00;100129.91;5027486;28;20021;-62
2024/01/01 09:46:36;;;;;;;11.15;1.98;;;;;;;5.44;100.00;100140.06;5026665;28;20496;-62
2024/01/01 09:49:03;;;;;;;8.63;2.30;;;;;;;5.41;100.00;100137.38;5027212;28;20277;-62
2024/01/01 09:51:28;;;;;;;6.63;1.70;;;;;;;5.43;100.00;100135.75;5026675;28;20033;-62
2024/01/01 09:53:54;;;;;;;9.35;2.35;;;;;;;5.42;100.00;100134.00;5027320;28;20654;-62
2024/01/01 09:56:20;;;;;;;12.77;2.60;;;;;;;5.43;100.00;100150.28;5027960;28;20032;-62
2024/01/01 09:58:45;;;;;;;6.07;2.00;;;;;;;5.45;100.00;100164.09;5027467;28;20029;-62
2024/01/01 10:01:12;;;;;;;13.65;2.17;;;;;;;5.47;100.00;100157.34;5027830;28;20473;-62
2024/01/01 10:03:38;;;;;;;5.22;1.67;;;;;;;5.51;100.00;100165.22;5026639;28;20029;-61
2024/01/01 10:06:07;;;;;;;9.27;2.03;;;;;;;5.51;100.00;100167.78;5028021;28;20033;-62
2024/01/01 10:08:33;;;;;;;9.80;1.80;;;;;;;5.56;100.00;100169.69;5027333;28;20029;-62
2024/01/01 10:10:58;;;;;;;9.82;2.05;;;;;;;5.59;100.00;100159.53;5027326;28;20087;-62
2024/01/01 10:13:24;;;;;;;10.90;3.88;;;;;;;5.60;100.00;100166.41;5019789;28;20037;-62
2024/01/01 10:15:56;;;;;;;10.43;2.33;;;;;;;5.61;100.00;100163.03;5018867;28;20033;-62
2024/01/01 10:18:21;;;;;;;10.30;2.70;;;;;;;5.63;100.00;100161.41;5024547;28;20078;-62
2024/01/01 10:20:46;;;;;;;11.50;2.80;;;;;;;5.59;100.00;100169.81;5024113;28;20424;-62
2024/01/01 10:23:21;;;;;;;12.15;2.53;;;;;;;5.61;100.00;100178.47;5023281;28;20018;-62
2024/01/01 10:25:47;;;;;;;8.05;2.03;;;;;;;5.59;100.00;100175.84;5030823;28;20036;-62
2024/01/01 10:28:16;;;;;;;8.38;1.98;;;;;;;5.67;100.00;100183.84;5031247;28;20021;-62
2024/01/01 10:30:48;;;;;;;10.73;2.00;;;;;;;5.81;100.00;100181.84;5032730;28;20519;-62
2024/01/01 10:33:14;;;;;;;13.75;3.60;;;;;;;5.92;100.00;100184.00;5036148;28;20086;-62
2024/01/01 10:35:40;;;;;;;14.38;5.15;;;;;;;6.05;100.00;100195.63;5030252;28;20029;-62
2024/01/01 10:38:06;;;;;;;14.93;3.75;;;;;;;6.12;100.00;100192.53;5032754;28;20578;-62
2024/01/01 10:40:31;;;;;;;11.45;3.35;;;;;;;6.20;100.00;100193.72;5029684;28;20432;-62
2024/01/01 10:42:57;;;;;;;12.32;2.65;;;;;;;6.28;100.00;100199.16;5029345;28;20029;-62
2024/01/01 10:45:22;;;;;;;11.13;2.25;;;;;;;6.38;100.00;100196.94;5025027;28;20079;-62
2024/01/01 10:47:49;;;;;;;12.40;3.22;;;;;;;6.50;100.00;100197.41;5024917;28;20051;-62
2024/01/01 10:50:30;;;;;;;10.35;3.15;;;;;;;6.53;100.00;100204.41;5024466;28;20021;-62
2024/01/01 10:53:05;;;;;;;;;;;;;;;6.52;100.00;100205.19;5025938;28;20116;-62
2024/01/01 10:55:53;;;;;;;11.50;3.03;;;;;;;6.43;100.00;100201.47;5026609;28;19952;-62
2024/01/01 10:58:52;;;;;;;10.75;2.47;;;;;;;6.36;100.00;100202.03;5038520;28;20112;-62
2024/01/01 11:01:20;;;;;;;12.73;2.53;;;;;;;6.36;100.00;100202.03;5028013;28;20127;-62
2024/01/01 11:03:46;;;;;;;13.10;2.95;;;;;;;6.38;100.00;100199.50;5033409;28;20546;-62
2024/01/01 11:06:39;;;;;;;12.07;2.78;;;;;;;6.30;100.00;100212.06;5035308;28;20052;-62
2024/01/01 11:09:19;;;;;;;11.00;2.30;;;;;;;6.26;100.00;100199.94;5031431;28;20033;-62
2024/01/01 11:11:48;;;;;;;12.45;2.55;;;;;;;6.21;100.00;100213.47;5032593;28;20033;-61
2024/01/01 11:14:27;;;;;;;15.00;3.00;;;;;;;6.20;100.00;100216.88;5035497;28;20040;-60
2024/01/01 11:16:54;;;;;;;14.27;3.03;;;;;;;6.15;100.00;100218.41;5026066;28;20040;-62
2024/01/01 11:19:46;;;;;;;10.30;2.60;;;;;;;6.19;100.00;100215.09;5027374;28;20108;-62
2024/01/01 11:22:18;;;;;;;11.90;3.15;;;;;;;6.19;100.00;100237.41;5027231;28;20151;-62
2024/01/01 11:24:45;;;;;;;14.63;3.10;;;;;;;6.16;100.00;100230.44;5028077;28;20214;-62